Time;durP1;ratioP1;P1;durP2;ratioP2;P2;SDS_P1;SDS_P2;PMS_P1;PMS_P2;Temp;Humidity;BMP_temperature;BMP_pressure;BME280_temperature;BME280_humidity;BME280_pressure;Samples;Min_cycle;Max_cycle;Signal;HPM_P1;HPM_P2
2021/01/20 00:00:55;;;;;;;6.80;4.07;;;;;;;3.01;100.00;96960.50;5118734;28;20510;-81
2021/01/20 00:03:22;;;;;;;5.40;3.80;;;;;;;3.11;100.00;96964.94;5116113;28;20047;-81
2021/01/20 00:05:49;;;;;;;5.80;4.20;;;;;;;3.01;100.00;96955.16;5083141;28;20040;-80
2021/01/20 00:08:15;;;;;;;6.53;4.32;;;;;;;3.07;100.00;96967.38;5115927;28;20046;-80
2021/01/20 00:10:41;;;;;;;7.97;4.38;;;;;;;3.08;100.00;96971.66;5117708;28;20051;-80
2021/01/20 00:13:07;;;;;;;7.93;4.00;;;;;;;3.11;100.00;96970.28;5117160;28;20054;-80
2021/01/20 00:15:33;;;;;;;7.35;3.90;;;;;;;3.12;100.00;96950.50;5117758;28;20317;-80
2021/01/20 00:17:59;;;;;;;6.90;3.72;;;;;;;3.11;100.00;96960.41;5115316;28;20043;-80
2021/01/20 00:20:28;;;;;;;6.47;3.30;;;;;;;3.06;100.00;96947.09;5116211;28;20104;-80
2021/01/20 00:22:56;;;;;;;7.05;3.33;;;;;;;3.10;100.00;96953.44;5116331;28;20130;-80
2021/01/20 00:25:22;;;;;;;6.28;3.10;;;;;;;3.19;100.00;96942.13;5099525;28;20458;-80
2021/01/20 00:27:49;;;;;;;4.72;2.85;;;;;;;3.26;100.00;96946.06;5099752;28;20097;-80
2021/01/20 00:30:16;;;;;;;9.20;3.20;;;;;;;3.27;100.00;96938.84;5099423;28;20035;-81
2021/01/20 00:32:43;;;;;;;7.13;2.63;;;;;;;3.33;100.00;96925.09;5118463;28;20398;-81
2021/01/20 00:35:12;;;;;;;8.13;2.67;;;;;;;3.33;100.00;96925.09;5118123;28;20071;-81
2021/01/20 00:37:39;;;;;;;5.25;2.35;;;;;;;3.38;100.00;96926.94;5116045;28;20048;-80
2021/01/20 00:40:09;;;;;;;3.90;2.13;;;;;;;3.46;100.00;96915.63;5098874;28;20563;-80
2021/01/20 00:42:36;;;;;;;7.43;1.77;;;;;;;3.47;100.00;96918.00;5098917;28;20047;-81
2021/01/20 00:45:04;;;;;;;3.78;1.90;;;;;;;3.50;100.00;96912.06;5115977;28;20143;-79
2021/01/20 00:47:30;;;;;;;5.93;1.88;;;;;;;3.53;100.00;96924.06;5117248;28;20059;-80
2021/01/20 00:49:57;;;;;;;5.15;2.03;;;;;;;3.63;100.00;96926.63;5098609;28;20406;-80
2021/01/20 00:52:25;;;;;;;4.07;1.77;;;;;;;3.57;100.00;96925.88;5116322;28;20046;-80
2021/01/20 00:54:51;;;;;;;6.05;1.67;;;;;;;3.54;100.00;96928.31;5115406;28;20050;-80
2021/01/20 00:57:18;;;;;;;6.47;1.65;;;;;;;3.51;100.00;96926.25;5116869;28;20574;-81
2021/01/20 00:59:45;;;;;;;4.35;1.63;;;;;;;3.55;100.00;96933.41;5116407;28;20482;-80
2021/01/20 01:02:11;;;;;;;3.45;1.30;;;;;;;3.44;100.00;96933.81;5115991;28;20062;-80
2021/01/20 01:04:39;;;;;;;6.47;1.70;;;;;;;3.54;100.00;96934.47;5116726;28;20044;-80
2021/01/20 01:07:07;;;;;;;2.85;1.55;;;;;;;3.56;100.00;96926.19;5114797;28;20547;-80
2021/01/20 01:09:36;;;;;;;5.38;1.70;;;;;;;3.62;100.00;96922.34;5117267;27;20039;-81
2021/01/20 01:12:03;;;;;;;4.13;1.42;;;;;;;3.65;100.00;96919.09;5098198;28;20402;-80
2021/01/20 01:14:30;;;;;;;4.13;1.52;;;;;;;3.60;100.00;96903.91;5114562;28;20046;-80
2021/01/20 01:16:56;;;;;;;3.55;1.38;;;;;;;3.72;100.00;96923.00;5114876;28;20058;-81
2021/01/20 01:19:23;;;;;;;4.10;1.40;;;;;;;3.67;100.00;96931.09;5098403;28;20032;-81
2021/01/20 01:21:50;;;;;;;6.72;1.40;;;;;;;3.79;100.00;96938.72;5117057;28;20047;-80
2021/01/20 01:24:16;;;;;;;3.15;1.50;;;;;;;3.77;100.00;96930.97;5098662;28;20048;-80
2021/01/20 01:26:43;;;;;;;4.43;1.80;;;;;;;3.79;100.00;96925.34;5104750;28;20097;-81
2021/01/20 01:29:09;;;;;;;5.80;1.33;;;;;;;3.84;100.00;96916.44;5101271;28;20070;-81
2021/01/20 01:31:36;;;;;;;2.17;1.20;;;;;;;3.81;100.00;96923.16;5118737;27;20509;-80
2021/01/20 01:34:02;;;;;;;3.83;1.17;;;;;;;3.73;100.00;96919.25;5115882;28;20052;-81
2021/01/20 01:36:28;;;;;;;5.45;1.40;;;;;;;3.74;100.00;96912.81;5116505;28;20069;-80
2021/01/20 01:38:55;;;;;;;5.18;1.48;;;;;;;3.81;100.00;96911.66;5115542;28;20099;-80
2021/01/20 01:41:21;;;;;;;4.57;1.20;;;;;;;3.84;100.00;96916.44;5098599;28;20051;-80
2021/01/20 01:43:57;;;;;;;2.35;1.17;;;;;;;3.78;100.00;96924.53;5114223;28;20096;-79
2021/01/20 01:46:24;;;;;;;2.20;1.20;;;;;;;3.78;100.00;96926.41;5103981;28;20056;-80
2021/01/20 01:48:54;;;;;;;4.20;1.20;;;;;;;3.71;100.00;96929.47;5080629;28;20180;-81
2021/01/20 01:51:24;;;;;;;3.17;1.17;;;;;;;3.64;100.00;96902.22;5095470;28;20141;-80
2021/01/20 01:53:52;;;;;;;2.53;1.20;;;;;;;3.70;100.00;96911.00;5087769;28;20054;-80
2021/01/20 01:56:20;;;;;;;1.75;1.08;;;;;;;3.67;100.00;96917.72;5103734;28;20063;-80
2021/01/20 01:58:51;;;;;;;2.03;1.05;;;;;;;3.71;100.00;96918.75;5094161;28;20040;-80
2021/01/20 02:01:19;;;;;;;4.18;1.02;;;;;;;3.73;100.00;96908.56;5100576;28;20044;-80
2021/01/20 02:03:49;;;;;;;2.47;0.90;;;;;;;3.80;100.00;96908.19;5085732;28;20048;-80
2021/01/20 02:06:16;;;;;;;3.22;1.10;;;;;;;3.71;100.00;96912.59;5116353;28;20058;-80
2021/01/20 02:08:47;;;;;;;5.55;1.30;;;;;;;3.81;100.00;96906.31;5116684;28;20046;-80
2021/01/20 02:11:51;;;;;;;2.47;1.20;;;;;;;3.83;100.00;96923.66;5116030;28;20061;-79
2021/01/20 02:14:20;;;;;;;3.60;1.17;;;;;;;3.75;100.00;96924.31;5119579;28;20487;-79
2021/01/20 02:17:19;;;;;;;2.88;1.30;;;;;;;3.79;100.00;96909.28;5095518;28;20051;-79
2021/01/20 02:20:01;;;;;;;1.40;0.90;;;;;;;3.88;100.00;96925.47;5111245;28;20394;-79
2021/01/20 02:22:35;;;;;;;4.28;1.20;;;;;;;3.85;100.00;96910.78;5111984;28;20149;-80
2021/01/20 02:25:23;;;;;;;3.80;1.10;;;;;;;3.91;100.00;96908.84;5112396;28;20517;-78
2021/01/20 02:28:13;;;;;;;3.53;1.30;;;;;;;3.85;100.00;96900.06;5104907;28;20051;-79
2021/01/20 02:30:43;;;;;;;2.80;1.10;;;;;;;3.85;100.00;96904.63;5093843;28;20052;-79
2021/01/20 02:33:15;;;;;;;2.53;0.90;;;;;;;4.01;100.00;96906.00;5076440;28;20050;-79
2021/01/20 02:35:42;;;;;;;2.78;0.95;;;;;;;4.09;100.00;96916.06;5078211;28;20055;-80
2021/01/20 02:38:09;;;;;;;2.38;1.13;;;;;;;4.02;100.00;96913.78;5095438;28;20103;-80
2021/01/20 02:40:35;;;;;;;1.63;0.77;;;;;;;4.04;100.00;96898.19;5095528;28;20410;-79
2021/01/20 02:43:02;;;;;;;2.92;1.05;;;;;;;4.02;100.00;96903.06;5096048;28;20043;-80
2021/01/20 02:45:28;;;;;;;4.45;1.05;;;;;;;4.07;100.00;96892.28;5094695;28;20040;-81
2021/01/20 02:47:55;;;;;;;2.47;1.10;;;;;;;4.28;100.00;96908.81;5094382;28;20048;-80
2021/01/20 02:50:22;;;;;;;1.92;1.08;;;;;;;4.15;100.00;96909.56;5093752;28;20078;-80
2021/01/20 02:53:08;;;;;;;2.47;1.00;;;;;;;4.00;100.00;96915.91;5076162;28;20407;-80
2021/01/20 02:55:35;;;;;;;2.13;1.10;;;;;;;4.02;100.00;96911.09;5110596;28;20047;-80
2021/01/20 02:58:09;;;;;;;3.47;1.00;;;;;;;3.98;100.00;96902.03;5093351;28;20044;-81
2021/01/20 03:00:40;;;;;;;2.25;0.93;;;;;;;3.95;100.00;96901.84;5092753;28;20065;-81
2021/01/20 03:03:09;;;;;;;4.57;1.10;;;;;;;4.00;100.00;96904.44;5093415;28;20387;-80
2021/01/20 03:05:37;;;;;;;2.60;1.10;;;;;;;3.97;100.00;96899.66;5093864;28;20051;-80
2021/01/20 03:08:04;;;;;;;1.85;1.02;;;;;;;3.95;100.00;96896.47;5115022;28;20502;-80
2021/01/20 03:10:31;;;;;;;4.93;1.30;;;;;;;3.97;100.00;96896.97;5096327;28;20046;-80
2021/01/20 03:12:57;;;;;;;4.47;1.60;;;;;;;3.98;100.00;96911.94;5114441;28;20401;-81
2021/01/20 03:15:32;;;;;;;3.20;1.30;;;;;;;3.99;100.00;96902.84;5096612;28;20501;-80
2021/01/20 03:17:58;;;;;;;2.50;1.20;;;;;;;3.96;100.00;96898.06;5114422;28;20050;-80
2021/01/20 03:20:24;;;;;;;2.72;1.33;;;;;;;3.92;100.00;96916.59;5113386;28;20535;-80
2021/01/20 03:22:51;;;;;;;2.78;1.35;;;;;;;3.96;100.00;96903.41;5094782;28;20040;-80
2021/01/20 03:25:18;;;;;;;2.65;1.27;;;;;;;3.96;100.00;96903.41;5101460;28;20090;-80
2021/01/20 03:27:44;;;;;;;4.90;1.58;;;;;;;3.98;100.00;96895.88;5102623;28;20114;-80
2021/01/20 03:30:10;;;;;;;3.97;1.60;;;;;;;3.93;100.00;96891.41;5111828;28;20050;-80
2021/01/20 03:32:37;;;;;;;3.20;1.67;;;;;;;3.96;100.00;96885.47;5112244;28;20090;-80
2021/01/20 03:35:05;;;;;;;4.63;1.35;;;;;;;4.09;100.00;96884.72;5095915;28;20079;-80
2021/01/20 03:37:31;;;;;;;4.57;1.77;;;;;;;4.04;100.00;96870.63;5107493;28;20372;-80
2021/01/20 03:39:59;;;;;;;2.95;1.55;;;;;;;4.05;100.00;96888.28;5093457;28;20145;-80
2021/01/20 03:42:25;;;;;;;2.78;1.38;;;;;;;4.07;100.00;96888.78;5058796;28;20067;-81
2021/01/20 03:44:52;;;;;;;3.72;1.60;;;;;;;3.99;100.00;96871.50;5095140;28;20044;-79
2021/01/20 03:47:18;;;;;;;2.55;1.20;;;;;;;3.99;100.00;96876.84;5093489;28;20126;-79
2021/01/20 03:49:45;;;;;;;3.90;1.70;;;;;;;3.98;100.00;96877.13;5095403;28;20238;-79
2021/01/20 03:52:15;;;;;;;2.80;1.33;;;;;;;3.96;100.00;96864.03;5097642;28;20051;-79
2021/01/20 03:54:41;;;;;;;2.22;1.42;;;;;;;4.07;100.00;96872.72;5081970;28;20056;-79
2021/01/20 03:57:09;;;;;;;3.58;1.50;;;;;;;4.05;100.00;96867.63;5081510;28;20043;-79
2021/01/20 03:59:35;;;;;;;3.42;1.30;;;;;;;4.18;100.00;96868.81;5098231;28;20475;-79
2021/01/20 04:02:05;;;;;;;3.58;1.42;;;;;;;4.23;100.00;96866.81;5095197;28;20047;-79
2021/01/20 04:04:32;;;;;;;2.20;1.20;;;;;;;4.21;100.00;96860.16;5115392;28;20043;-79
2021/01/20 04:07:03;;;;;;;3.63;1.48;;;;;;;4.21;100.00;96865.50;5118393;28;20116;-79
2021/01/20 04:09:29;;;;;;;2.15;1.30;;;;;;;4.31;100.00;96860.78;5119983;28;20433;-79
2021/01/20 04:11:56;;;;;;;3.28;1.20;;;;;;;4.34;100.00;96870.13;5118426;28;20036;-79
2021/01/20 04:14:23;;;;;;;2.65;1.30;;;;;;;4.33;100.00;96860.50;5119681;28;20035;-79
2021/01/20 04:16:49;;;;;;;1.85;1.10;;;;;;;4.37;100.00;96851.59;5118717;28;20054;-79
2021/01/20 04:19:16;;;;;;;2.10;1.30;;;;;;;4.46;100.00;96851.72;5116094;28;20093;-79
2021/01/20 04:21:42;;;;;;;2.63;1.13;;;;;;;4.39;100.00;96853.97;5114056;28;20099;-80
2021/01/20 04:24:10;;;;;;;3.13;1.40;;;;;;;4.43;100.00;96833.53;5101402;23;20044;-80
2021/01/20 04:26:37;;;;;;;3.08;1.20;;;;;;;4.50;100.00;96838.50;5065576;28;20406;-78
2021/01/20 04:29:03;;;;;;;8.50;1.70;;;;;;;4.47;100.00;96833.72;5117024;28;20048;-79
2021/01/20 04:31:30;;;;;;;3.38;1.33;;;;;;;4.45;100.00;96834.03;5117471;28;20048;-81
2021/01/20 04:33:58;;;;;;;3.85;1.33;;;;;;;4.45;100.00;96834.03;5098136;28;20044;-79
2021/01/20 04:36:25;;;;;;;3.35;1.40;;;;;;;4.61;100.00;96824.63;5099247;28;20118;-78
2021/01/20 04:38:54;;;;;;;1.83;1.00;;;;;;;4.53;100.00;96837.91;5115178;28;20036;-77
2021/01/20 04:41:21;;;;;;;2.38;1.40;;;;;;;4.62;100.00;96828.13;5116850;28;20035;-81
2021/01/20 04:43:47;;;;;;;2.42;1.00;;;;;;;4.54;100.00;96821.56;5098030;28;20529;-79
2021/01/20 04:46:14;;;;;;;2.83;1.30;;;;;;;4.50;100.00;96817.06;5098326;28;20055;-78
2021/01/20 04:48:41;;;;;;;2.22;1.05;;;;;;;4.50;100.00;96801.00;5116698;28;20058;-76
2021/01/20 04:51:08;;;;;;;1.65;1.00;;;;;;;4.60;100.00;96809.63;5115912;28;20047;-79
2021/01/20 04:53:38;;;;;;;2.25;1.08;;;;;;;4.66;100.00;96813.81;5110027;28;20048;-79
2021/01/20 04:56:12;;;;;;;3.47;1.00;;;;;;;4.71;100.00;96803.00;5113390;28;20055;-78
2021/01/20 04:58:39;;;;;;;3.08;1.27;;;;;;;4.74;100.00;96810.47;5116370;28;20057;-79
2021/01/20 05:01:06;;;;;;;3.55;1.13;;;;;;;4.76;100.00;96812.81;5117447;28;20506;-78
2021/01/20 05:03:32;;;;;;;3.70;1.20;;;;;;;4.78;100.00;96802.59;5114699;28;20050;-80
2021/01/20 05:06:00;;;;;;;1.77;1.00;;;;;;;4.78;100.00;96813.31;5115664;28;20075;-80
2021/01/20 05:08:26;;;;;;;2.03;1.00;;;;;;;4.82;100.00;96820.50;5116168;28;20066;-79
2021/01/20 05:10:52;;;;;;;4.43;1.00;;;;;;;4.88;100.00;96815.81;5116492;28;20047;-80
2021/01/20 05:13:24;;;;;;;4.00;1.15;;;;;;;4.94;100.00;96804.69;5117183;28;20040;-76
2021/01/20 05:15:51;;;;;;;2.58;1.20;;;;;;;4.90;100.00;96810.97;5115250;28;20043;-81
2021/01/20 05:18:19;;;;;;;1.80;1.08;;;;;;;5.03;100.00;96824.34;5109659;28;20105;-78
2021/01/20 05:20:46;;;;;;;3.40;0.82;;;;;;;4.99;100.00;96809.94;5100656;28;20083;-80
2021/01/20 05:23:12;;;;;;;2.85;1.05;;;;;;;5.08;100.00;96814.63;5093751;28;20051;-80
2021/01/20 05:25:39;;;;;;;1.55;0.88;;;;;;;5.07;100.00;96816.50;5094411;28;20048;-79
2021/01/20 05:28:23;;;;;;;4.43;0.90;;;;;;;5.06;100.00;96822.94;5095160;28;20044;-80
2021/01/20 05:30:52;;;;;;;3.05;0.80;;;;;;;5.04;100.00;96819.78;5096308;28;20039;-80
2021/01/20 05:33:25;;;;;;;2.25;0.85;;;;;;;5.14;100.00;96814.19;5096030;28;20059;-79
2021/01/20 05:36:12;;;;;;;1.88;0.85;;;;;;;5.07;100.00;96815.69;5096443;28;20048;-79
2021/01/20 05:38:47;;;;;;;1.98;0.90;;;;;;;5.01;100.00;96817.69;5095719;28;20052;-79
2021/01/20 05:41:24;;;;;;;1.77;0.82;;;;;;;5.04;100.00;96820.56;5095890;28;20048;-80
2021/01/20 05:43:53;;;;;;;2.28;1.00;;;;;;;5.04;100.00;96815.22;5095259;28;20048;-80
2021/01/20 05:46:32;;;;;;;2.83;1.08;;;;;;;5.04;100.00;96809.84;5096547;28;20043;-80
2021/01/20 05:49:00;;;;;;;2.83;1.00;;;;;;;5.10;100.00;96793.66;5095990;28;20051;-79
2021/01/20 05:51:36;;;;;;;2.60;1.00;;;;;;;5.07;100.00;96797.72;5097605;28;20046;-77
2021/01/20 05:54:03;;;;;;;3.88;0.98;;;;;;;5.14;100.00;96798.09;5097905;28;20040;-79
2021/01/20 05:56:30;;;;;;;2.45;0.80;;;;;;;5.15;100.00;96796.22;5097646;28;20040;-78
2021/01/20 05:58:58;;;;;;;1.92;0.90;;;;;;;5.14;100.00;96795.44;5095866;28;20040;-79
2021/01/20 06:01:26;;;;;;;1.80;0.82;;;;;;;5.05;100.00;96802.59;5096162;28;20070;-79
2021/01/20 06:03:53;;;;;;;1.92;0.90;;;;;;;5.08;100.00;96787.78;5095386;28;20453;-79
2021/01/20 06:06:21;;;;;;;3.00;1.00;;;;;;;5.00;100.00;96784.72;5071628;28;20051;-78
2021/01/20 06:08:50;;;;;;;1.70;0.95;;;;;;;5.00;100.00;96789.28;5098668;28;20039;-79
2021/01/20 06:11:16;;;;;;;2.72;0.93;;;;;;;4.99;100.00;96785.81;5113345;28;20046;-79
2021/01/20 06:13:42;;;;;;;1.40;0.75;;;;;;;5.00;100.00;96789.28;5117555;28;20054;-76
2021/01/20 06:16:22;;;;;;;1.98;0.90;;;;;;;5.26;100.00;96787.69;5121388;28;20051;-80
2021/01/20 06:19:02;;;;;;;2.60;1.00;;;;;;;5.19;100.00;96800.69;5117532;28;20044;-81
2021/01/20 06:21:30;;;;;;;1.50;0.80;;;;;;;5.16;100.00;96787.09;5116506;28;20039;-78
2021/01/20 06:23:59;;;;;;;1.30;0.80;;;;;;;5.06;100.00;96800.72;5077953;28;20036;-80
2021/01/20 06:26:28;;;;;;;2.60;1.23;;;;;;;4.98;100.00;96794.16;5086634;28;20044;-78
2021/01/20 06:29:09;;;;;;;1.55;0.90;;;;;;;5.00;100.00;96794.66;5095014;28;20048;-79
2021/01/20 06:31:42;;;;;;;2.33;0.77;;;;;;;5.04;100.00;96788.38;5093775;28;20044;-80
2021/01/20 06:34:09;;;;;;;1.58;0.80;;;;;;;5.01;100.00;96797.03;5092815;28;20531;-79
2021/01/20 06:36:38;;;;;;;2.92;1.48;;;;;;;5.01;100.00;96780.13;5093332;28;20429;-79
2021/01/20 06:39:27;;;;;;;2.10;0.77;;;;;;;5.02;100.00;96789.78;5093034;28;20081;-80
2021/01/20 06:41:54;;;;;;;3.35;0.88;;;;;;;5.03;100.00;96792.16;5093538;28;20515;-79
2021/01/20 06:44:21;;;;;;;2.00;0.95;;;;;;;5.02;100.00;96792.47;5092400;28;20052;-78
2021/01/20 06:47:06;;;;;;;2.15;1.08;;;;;;;4.95;100.00;96795.56;5093601;28;20127;-77
2021/01/20 06:49:33;;;;;;;1.67;0.85;;;;;;;4.96;100.00;96801.69;5092963;28;20089;-79
2021/01/20 06:52:15;;;;;;;2.65;1.00;;;;;;;5.13;100.00;96799.22;5094205;28;20040;-79
2021/01/20 06:54:43;;;;;;;1.52;0.93;;;;;;;5.12;100.00;96794.94;5058540;28;20176;-80
2021/01/20 06:57:30;;;;;;;1.65;0.90;;;;;;;5.18;100.00;96806.34;5093200;28;20096;-80
2021/01/20 07:00:09;;;;;;;5.28;0.90;;;;;;;5.23;100.00;96800.88;5074173;28;20050;-79
2021/01/20 07:03:01;;;;;;;2.45;0.90;;;;;;;5.21;100.00;96800.41;5091570;28;20131;-79
2021/01/20 07:05:39;;;;;;;1.27;0.85;;;;;;;5.18;100.00;96798.31;5092743;28;20235;-80
2021/01/20 07:08:07;;;;;;;1.90;0.80;;;;;;;5.25;100.00;96788.75;5093491;28;20426;-80
2021/01/20 07:11:00;;;;;;;1.42;0.75;;;;;;;5.31;100.00;96797.50;5092759;28;20048;-79
2021/01/20 07:13:33;;;;;;;3.00;0.80;;;;;;;5.21;100.00;96789.66;5104207;28;20092;-78
2021/01/20 07:16:00;;;;;;;2.28;0.90;;;;;;;5.25;100.00;96796.00;5108983;28;20046;-81
2021/01/20 07:18:27;;;;;;;1.83;0.85;;;;;;;5.30;100.00;96785.16;5093631;28;20495;-79
2021/01/20 07:20:55;;;;;;;2.30;0.80;;;;;;;5.32;100.00;96788.34;5093944;28;20117;-81
2021/01/20 07:23:21;;;;;;;2.30;0.85;;;;;;;5.27;100.00;96780.41;5093823;28;20044;-78
2021/01/20 07:25:50;;;;;;;4.28;1.08;;;;;;;5.33;100.00;96790.72;5094021;28;20075;-80
2021/01/20 07:28:18;;;;;;;2.83;1.05;;;;;;;5.36;100.00;96792.03;5093040;28;20051;-80
2021/01/20 07:30:44;;;;;;;1.58;0.77;;;;;;;5.37;100.00;96782.84;5093309;28;20487;-78
2021/01/20 07:33:17;;;;;;;3.30;0.80;;;;;;;5.40;100.00;96793.00;5092891;28;20048;-79
2021/01/20 07:35:45;;;;;;;1.88;0.90;;;;;;;5.54;100.00;96796.44;5093133;28;20074;-78
2021/01/20 07:38:12;;;;;;;2.78;0.80;;;;;;;5.61;100.00;96799.50;5100837;28;20683;-80
2021/01/20 07:40:43;;;;;;;1.80;0.80;;;;;;;5.57;100.00;96787.78;5096580;28;20035;-80
2021/01/20 07:43:20;;;;;;;1.65;0.80;;;;;;;5.59;100.00;96794.44;5085999;28;20607;-79
2021/01/20 07:45:46;;;;;;;2.28;0.90;;;;;;;5.54;100.00;96807.19;5104593;28;20036;-79
2021/01/20 07:48:17;;;;;;;1.58;0.80;;;;;;;5.58;100.00;96810.84;5085611;28;20044;-79
2021/01/20 07:50:45;;;;;;;2.15;0.88;;;;;;;5.60;100.00;96800.63;5104466;28;20067;-79
2021/01/20 07:53:14;;;;;;;2.65;0.80;;;;;;;5.64;100.00;96815.81;5103631;28;20118;-79
2021/01/20 07:55:42;;;;;;;2.13;0.77;;;;;;;5.56;100.00;96818.41;5103531;28;20047;-80
2021/01/20 07:58:09;;;;;;;1.42;0.80;;;;;;;5.53;100.00;96805.59;5104069;28;20032;-79
2021/01/20 08:00:48;;;;;;;2.05;0.77;;;;;;;5.64;100.00;96818.50;5102284;28;20063;-80
2021/01/20 08:03:15;;;;;;;2.95;1.05;;;;;;;5.68;100.00;96773.81;5105225;28;20143;-78
2021/01/20 08:05:43;;;;;;;1.20;0.70;;;;;;;5.61;100.00;96796.81;5085370;28;20048;-80
2021/01/20 08:08:11;;;;;;;2.42;0.93;;;;;;;5.66;100.00;96783.28;5088863;28;20513;-80
2021/01/20 08:10:38;;;;;;;1.33;0.90;;;;;;;5.73;100.00;96798.97;5088655;28;20042;-81
2021/01/20 08:13:07;;;;;;;2.45;0.90;;;;;;;5.74;100.00;96787.91;5108161;28;20048;-79
2021/01/20 08:15:38;;;;;;;5.07;1.58;;;;;;;5.76;100.00;96798.34;5118154;28;20039;-76
2021/01/20 08:18:07;;;;;;;1.35;0.80;;;;;;;5.74;100.00;96790.59;5107462;28;20336;-78
2021/01/20 08:20:35;;;;;;;1.75;0.98;;;;;;;5.80;100.00;96794.78;5122161;28;20122;-79
2021/01/20 08:23:04;;;;;;;2.92;0.98;;;;;;;5.85;100.00;96797.38;5106731;28;20044;-82
2021/01/20 08:25:32;;;;;;;1.50;0.88;;;;;;;5.91;100.00;96793.44;5106183;28;20044;-82
2021/01/20 08:28:15;;;;;;;1.85;0.80;;;;;;;6.00;100.00;96775.50;5105900;28;20039;-79
2021/01/20 08:30:41;;;;;;;2.15;1.10;;;;;;;6.01;100.00;96806.63;5107881;28;20044;-79
2021/01/20 08:33:08;;;;;;;4.53;1.30;;;;;;;6.01;100.00;96795.09;5111288;28;20039;-81
2021/01/20 08:35:36;;;;;;;1.08;0.60;;;;;;;6.13;100.00;96808.78;5116448;28;20047;-80
2021/01/20 08:38:05;;;;;;;2.38;0.90;;;;;;;6.19;100.00;96808.34;5109845;28;20440;-81
2021/01/20 08:40:32;;;;;;;2.17;0.98;;;;;;;6.26;100.00;96815.97;5115895;28;20046;-81
2021/01/20 08:42:59;;;;;;;2.40;1.10;;;;;;;6.22;100.00;96820.34;5114979;28;20047;-79
2021/01/20 08:45:40;;;;;;;1.98;0.98;;;;;;;6.30;100.00;96821.53;5115244;28;20050;-78
2021/01/20 08:48:07;;;;;;;1.85;0.85;;;;;;;6.17;100.00;96817.78;5112324;28;20075;-79
2021/01/20 08:50:47;;;;;;;1.88;1.02;;;;;;;6.06;100.00;96793.09;5086279;28;20071;-79
2021/01/20 08:53:34;;;;;;;2.70;1.00;;;;;;;6.24;100.00;96807.44;5114945;28;20050;-78
2021/01/20 08:56:00;;;;;;;1.27;0.82;;;;;;;6.16;100.00;96814.34;5115489;28;20035;-79
2021/01/20 08:58:31;;;;;;;4.55;0.95;;;;;;;6.34;100.00;96809.88;5097575;28;20040;-81
2021/01/20 09:01:27;;;;;;;2.25;0.90;;;;;;;6.44;100.00;96814.97;5115169;28;20040;-80
2021/01/20 09:03:55;;;;;;;2.03;0.93;;;;;;;6.38;100.00;96788.53;5093781;28;20071;-77
2021/01/20 09:06:22;;;;;;;3.40;1.00;;;;;;;6.55;100.00;96807.44;5114706;28;20050;-82
2021/01/20 09:08:48;;;;;;;2.67;1.10;;;;;;;6.71;100.00;96809.41;5106297;28;20039;-80
2021/01/20 09:11:15;;;;;;;2.42;1.17;;;;;;;6.72;100.00;96786.78;5084553;28;20044;-79
2021/01/20 09:13:44;;;;;;;1.00;0.80;;;;;;;6.75;100.00;96799.63;5101816;28;20043;-79
2021/01/20 09:16:11;;;;;;;1.98;0.90;;;;;;;6.88;100.00;96792.56;5085003;28;20040;-78
2021/01/20 09:18:38;;;;;;;2.05;1.02;;;;;;;6.83;100.00;96801.56;5085602;28;20047;-81
2021/01/20 09:21:04;;;;;;;3.35;1.15;;;;;;;6.90;100.00;96809.97;5103720;28;20032;-79
2021/01/20 09:23:31;;;;;;;3.95;1.20;;;;;;;6.92;100.00;96798.13;5091969;28;20040;-80
2021/01/20 09:25:57;;;;;;;2.20;0.90;;;;;;;6.96;100.00;96816.00;5104704;28;20403;-80
2021/01/20 09:28:23;;;;;;;2.08;1.00;;;;;;;7.30;100.00;96816.09;5082880;28;20044;-78
2021/01/20 09:30:50;;;;;;;2.45;1.13;;;;;;;7.73;100.00;96812.66;5079295;28;20476;-81
2021/01/20 09:33:16;;;;;;;1.67;1.10;;;;;;;7.95;100.00;96801.72;5112437;28;20059;-78
2021/01/20 09:35:46;;;;;;;1.98;0.85;;;;;;;7.87;100.00;96819.47;5118549;28;20119;-77
2021/01/20 09:38:16;;;;;;;2.95;1.00;;;;;;;7.88;100.00;96841.84;5091103;28;20054;-80
2021/01/20 09:40:42;;;;;;;2.50;1.20;;;;;;;7.70;100.00;96821.38;5088143;28;20066;-80
2021/01/20 09:43:08;;;;;;;1.95;1.00;;;;;;;7.69;100.00;96823.28;5084137;28;20051;-81
2021/01/20 09:45:35;;;;;;;3.08;1.02;;;;;;;7.77;100.00;96827.88;5103818;28;20046;-78
2021/01/20 09:48:03;;;;;;;2.45;1.10;;;;;;;7.55;100.00;96828.03;5086782;28;20035;-78
2021/01/20 09:50:33;;;;;;;1.75;1.20;;;;;;;7.58;100.00;96822.03;5085916;28;20468;-78
2021/01/20 09:53:04;;;;;;;2.60;1.10;;;;;;;7.57;100.00;96827.69;5113592;28;20067;-79
2021/01/20 09:55:30;;;;;;;3.15;1.30;;;;;;;7.55;100.00;96825.34;5096343;28;20498;-78
2021/01/20 09:57:57;;;;;;;3.05;1.20;;;;;;;7.90;100.00;96821.53;5114211;28;20044;-80
2021/01/20 10:00:27;;;;;;;2.30;1.00;;;;;;;8.20;100.00;96827.09;5095199;28;20036;-81
2021/01/20 10:02:53;;;;;;;1.50;0.95;;;;;;;8.12;100.00;96831.38;5077937;28;20040;-82
2021/01/20 10:05:19;;;;;;;1.70;1.00;;;;;;;8.22;100.00;96828.34;5114308;28;20032;-80
2021/01/20 10:07:46;;;;;;;2.22;1.15;;;;;;;8.35;100.00;96824.72;5094891;28;20039;-80
2021/01/20 10:10:13;;;;;;;3.70;1.13;;;;;;;8.17;100.00;96828.53;5096159;28;20132;-80
2021/01/20 10:12:40;;;;;;;2.38;1.27;;;;;;;8.23;100.00;96811.09;5119658;28;20059;-79
2021/01/20 10:15:07;;;;;;;2.15;1.13;;;;;;;8.41;100.00;96826.16;5117861;28;20095;-77
2021/01/20 10:17:35;;;;;;;3.63;1.30;;;;;;;7.94;100.00;96802.84;5118053;28;20046;-80
2021/01/20 10:20:04;;;;;;;2.50;1.33;;;;;;;7.86;100.00;96803.66;5098146;28;20036;-80
2021/01/20 10:22:31;;;;;;;2.72;1.20;;;;;;;7.68;100.00;96793.97;5116616;28;20039;-79
2021/01/20 10:25:05;;;;;;;3.05;1.38;;;;;;;7.65;100.00;96786.53;5157948;22;20524;-83
2021/01/20 10:28:08;;;;;;;2.42;1.27;;;;;;;7.75;100.00;96778.91;5122786;27;20068;-84
2021/01/20 10:30:42;;;;;;;3.25;1.40;;;;;;;7.91;100.00;96773.84;5121850;27;20081;-83
2021/01/20 10:33:13;;;;;;;2.35;1.23;;;;;;;8.42;100.00;96778.38;5160159;27;20061;-82
2021/01/20 10:35:40;;;;;;;3.17;1.27;;;;;;;8.58;92.56;96769.44;5122157;27;20050;-83
2021/01/20 10:38:11;;;;;;;1.95;1.00;;;;;;;8.90;88.68;96765.38;5122857;27;20041;-84
2021/01/20 10:40:38;;;;;;;2.67;1.35;;;;;;;8.96;85.45;96777.53;5122084;27;20087;-83
2021/01/20 10:43:04;;;;;;;3.55;1.30;;;;;;;9.61;79.21;96771.59;5139598;27;20069;-82
2021/01/20 10:45:37;;;;;;;3.53;1.27;;;;;;;9.28;76.60;96755.28;5156160;27;20364;-84
2021/01/20 10:48:10;;;;;;;3.03;1.30;;;;;;;9.33;77.06;96770.50;5134007;27;20050;-84
2021/01/20 10:50:45;;;;;;;3.60;1.30;;;;;;;8.75;81.67;96744.28;5157110;27;20090;-84
2021/01/20 10:53:18;;;;;;;2.15;1.30;;;;;;;8.21;88.36;96740.50;5129297;27;20057;-84
2021/01/20 10:55:52;;;;;;;3.28;1.25;;;;;;;8.25;93.13;96767.63;5120502;27;20070;-83
2021/01/20 10:58:43;;;;;;;2.67;1.20;;;;;;;8.10;93.13;96733.88;5128749;27;20070;-83
2021/01/20 11:01:20;;;;;;;2.83;1.40;;;;;;;8.23;93.47;96743.69;5137446;27;20047;-83
2021/01/20 11:04:28;;;;;;;2.70;1.17;;;;;;;8.31;92.60;96750.97;5136754;27;20042;-83
2021/01/20 11:06:56;;;;;;;3.00;1.15;;;;;;;8.33;96.18;96751.44;5113447;27;20042;-85
2021/01/20 11:09:32;;;;;;;2.35;1.10;;;;;;;8.15;95.73;96731.00;5122948;27;20042;-81
2021/01/20 11:12:05;;;;;;;2.80;1.38;;;;;;;7.99;96.79;96728.03;5123102;27;20095;-84
2021/01/20 11:14:42;;;;;;;3.47;1.48;;;;;;;8.01;91.90;96738.47;5141328;27;20102;-84
2021/01/20 11:17:24;;;;;;;3.38;1.30;;;;;;;7.84;97.22;96733.91;5124981;27;20117;-84
2021/01/20 11:20:08;;;;;;;2.75;1.27;;;;;;;7.80;100.00;96749.13;5124253;27;20623;-85
2021/01/20 11:22:34;;;;;;;3.35;1.10;;;;;;;7.53;100.00;96744.88;5109601;27;20358;-84
2021/01/20 11:25:23;;;;;;;2.83;1.45;;;;;;;7.45;100.00;96726.81;5142753;27;20245;-83
2021/01/20 11:27:52;;;;;;;3.90;1.20;;;;;;;7.50;100.00;96721.25;5142015;27;20378;-80
2021/01/20 11:30:19;;;;;;;3.50;1.58;;;;;;;7.42;100.00;96726.63;5141355;27;20038;-80
2021/01/20 11:32:48;;;;;;;2.83;1.38;;;;;;;7.59;100.00;96737.41;5140394;27;20322;-83
2021/01/20 11:35:53;;;;;;;3.35;1.00;;;;;;;7.62;100.00;96736.78;5118007;27;20055;-83
2021/01/20 11:39:28;;;;;;;;;;;;;;;;;;;;;
2021/01/20 11:42:10;;;;;;;3.13;1.13;;;;;;;7.73;100.00;96715.69;5117477;27;20043;-83
2021/01/20 11:44:36;;;;;;;2.22;0.98;;;;;;;7.88;100.00;96721.38;5111506;27;20141;-80
2021/01/20 11:47:12;;;;;;;2.05;1.10;;;;;;;7.87;100.00;96705.56;5140089;27;20054;-82
2021/01/20 11:49:39;;;;;;;2.55;1.10;;;;;;;8.15;100.00;96712.13;5140275;27;20039;-81